Time;durP1;ratioP1;P1;durP2;ratioP2;P2;SDS_P1;SDS_P2;PMS_P1;PMS_P2;Temp;Humidity;BMP_temperature;BMP_pressure;BME280_temperature;BME280_humidity;BME280_pressure;Samples;Min_cycle;Max_cycle;Signal;HPM_P1;HPM_P2
2023/08/19 00:00:51;;;;;;;20.13;15.23;;;22.80;78.70;;;;;;9178478;19;20014;-69
2023/08/19 00:03:59;;;;;;;23.98;15.23;;;22.80;78.80;;;;;;9178694;19;20514;-70
2023/08/19 00:07:04;;;;;;;23.90;15.93;;;22.80;78.80;;;;;;9180251;19;20082;-71
2023/08/19 00:10:14;;;;;;;22.58;15.73;;;22.80;78.90;;;;;;9179261;19;20365;-70
2023/08/19 00:13:20;;;;;;;19.73;14.48;;;22.70;79.10;;;;;;9179862;19;20033;-70
2023/08/19 00:16:27;;;;;;;25.00;15.75;;;22.70;79.00;;;;;;9180066;19;20817;-70
2023/08/19 00:19:33;;;;;;;22.30;15.20;;;22.70;79.00;;;;;;9177825;19;20018;-70
2023/08/19 00:22:40;;;;;;;25.23;15.95;;;22.70;79.10;;;;;;9179063;19;20027;-70
2023/08/19 00:25:48;;;;;;;23.48;15.80;;;22.70;79.20;;;;;;9179670;19;20052;-70
2023/08/19 00:28:56;;;;;;;23.73;15.63;;;22.70;79.30;;;;;;9178556;19;20014;-71
2023/08/19 00:32:01;;;;;;;20.20;15.13;;;22.70;79.30;;;;;;9178142;19;20007;-71
2023/08/19 00:35:19;;;;;;;23.75;15.68;;;22.60;79.20;;;;;;9177472;19;20399;-70
2023/08/19 00:38:25;;;;;;;21.42;16.00;;;22.60;79.20;;;;;;9176029;19;20019;-70
2023/08/19 00:41:37;;;;;;;26.05;15.38;;;22.60;79.30;;;;;;9172243;19;20021;-69
2023/08/19 00:44:42;;;;;;;20.73;14.90;;;22.60;79.40;;;;;;9176580;19;20018;-71
2023/08/19 00:47:50;;;;;;;20.65;15.43;;;22.60;79.40;;;;;;9177980;19;20015;-70
2023/08/19 00:50:58;;;;;;;20.15;15.88;;;22.60;79.40;;;;;;9177992;19;20025;-70
2023/08/19 00:54:07;;;;;;;20.55;14.80;;;22.60;79.50;;;;;;9176892;19;20014;-70
2023/08/19 00:57:15;;;;;;;22.77;14.90;;;22.60;79.60;;;;;;9174011;19;20038;-71
2023/08/19 01:00:23;;;;;;;19.02;14.85;;;22.60;79.70;;;;;;9175507;19;20021;-70
2023/08/19 01:03:28;;;;;;;22.30;15.85;;;22.60;79.70;;;;;;9176604;19;20077;-70
2023/08/19 01:06:42;;;;;;;26.15;15.32;;;22.50;79.70;;;;;;9175351;19;20661;-70
2023/08/19 01:09:58;;;;;;;23.42;15.68;;;22.50;79.80;;;;;;9177002;19;20014;-70
2023/08/19 01:13:13;;;;;;;25.05;15.70;;;22.50;79.90;;;;;;9176706;19;20747;-71
2023/08/19 01:16:25;;;;;;;25.38;14.07;;;22.50;79.90;;;;;;9177880;19;20488;-70
2023/08/19 01:19:34;;;;;;;24.25;16.10;;;22.50;79.90;;;;;;9175631;19;20021;-69
2023/08/19 01:22:49;;;;;;;21.13;15.30;;;22.50;79.90;;;;;;9175196;19;20018;-70
2023/08/19 01:26:01;;;;;;;20.58;14.43;;;22.50;80.00;;;;;;9176672;19;20440;-71
2023/08/19 01:29:06;;;;;;;19.50;14.43;;;22.40;79.90;;;;;;9174886;19;20014;-71
2023/08/19 01:32:14;;;;;;;19.00;14.40;;;22.40;79.90;;;;;;9175272;19;20022;-71
2023/08/19 01:35:20;;;;;;;22.13;14.82;;;22.40;80.00;;;;;;9174823;19;20118;-70
2023/08/19 01:38:36;;;;;;;21.92;13.30;;;22.40;80.10;;;;;;9175343;19;20734;-70
2023/08/19 01:41:45;;;;;;;19.70;14.13;;;22.40;80.20;;;;;;9169113;19;20010;-70
2023/08/19 01:44:53;;;;;;;21.90;14.23;;;22.40;80.10;;;;;;9173977;19;20476;-69
2023/08/19 01:47:58;;;;;;;18.92;13.77;;;22.40;80.10;;;;;;9174821;19;20019;-70
2023/08/19 01:51:06;;;;;;;24.02;15.10;;;22.40;80.20;;;;;;9173679;19;20029;-69
2023/08/19 01:54:11;;;;;;;20.75;14.93;;;22.30;80.20;;;;;;9172365;19;20048;-69
2023/08/19 01:57:21;;;;;;;19.95;14.07;;;22.30;80.80;;;;;;9174193;19;20017;-70
2023/08/19 02:00:26;;;;;;;20.50;15.40;;;22.30;80.30;;;;;;9166382;19;20010;-70
2023/08/19 02:03:34;;;;;;;21.80;14.38;;;22.30;80.40;;;;;;9169412;19;20019;-70
2023/08/19 02:06:39;;;;;;;22.58;15.52;;;22.30;80.40;;;;;;9176035;19;20696;-70
2023/08/19 02:09:47;;;;;;;18.45;13.60;;;22.30;80.40;;;;;;9175157;19;20926;-71
2023/08/19 02:12:55;;;;;;;23.02;15.25;;;22.30;80.40;;;;;;9175077;19;20018;-70
2023/08/19 02:16:02;;;;;;;26.30;15.13;;;22.30;80.50;;;;;;9167564;19;20421;-72
2023/08/19 02:19:11;;;;;;;20.25;14.13;;;22.20;80.50;;;;;;9165062;19;20578;-71
2023/08/19 02:22:20;;;;;;;24.50;14.30;;;22.20;80.50;;;;;;9166353;19;20120;-70
2023/08/19 02:25:28;;;;;;;26.33;14.98;;;22.20;80.50;;;;;;9164932;19;20035;-71
2023/08/19 02:28:38;;;;;;;25.20;15.10;;;22.20;80.70;;;;;;9167328;19;20018;-71
2023/08/19 02:31:43;;;;;;;21.45;14.55;;;22.20;80.70;;;;;;9162024;19;20531;-69
2023/08/19 02:34:51;;;;;;;20.80;13.68;;;22.20;80.70;;;;;;9166657;19;20022;-70
2023/08/19 02:37:56;;;;;;;24.10;14.40;;;22.10;80.70;;;;;;9166408;19;20086;-70
2023/08/19 02:41:04;;;;;;;23.65;14.23;;;22.10;80.70;;;;;;9161306;19;20018;-70
2023/08/19 02:44:12;;;;;;;21.75;13.90;;;22.20;80.80;;;;;;9167769;19;20033;-69
2023/08/19 02:47:19;;;;;;;22.58;14.50;;;22.20;80.90;;;;;;9164935;19;20022;-69
2023/08/19 02:50:26;;;;;;;20.67;14.85;;;22.10;81.50;;;;;;9164223;19;20018;-70
2023/08/19 02:53:33;;;;;;;21.98;15.07;;;22.10;81.00;;;;;;9166253;19;20010;-70
2023/08/19 02:56:39;;;;;;;25.85;15.02;;;22.10;81.00;;;;;;9163841;19;20895;-71
2023/08/19 02:59:48;;;;;;;20.05;14.48;;;22.10;81.10;;;;;;9166736;19;20015;-71
2023/08/19 03:02:54;;;;;;;20.38;14.20;;;22.10;81.20;;;;;;9161697;19;20026;-70
2023/08/19 03:06:03;;;;;;;22.23;14.18;;;22.10;81.10;;;;;;9163831;19;20011;-72
2023/08/19 03:09:08;;;;;;;17.90;13.65;;;22.10;81.10;;;;;;9169104;19;20022;-71
2023/08/19 03:12:16;;;;;;;20.17;14.18;;;22.10;81.20;;;;;;9172181;19;20503;-70
2023/08/19 03:15:24;;;;;;;21.92;14.88;;;22.10;81.20;;;;;;9175301;19;20010;-69
2023/08/19 03:18:31;;;;;;;23.98;13.80;;;22.10;81.30;;;;;;9181672;19;20022;-71
2023/08/19 03:21:36;;;;;;;20.67;14.45;;;22.10;81.20;;;;;;9179370;19;20011;-70
2023/08/19 03:24:44;;;;;;;22.15;14.15;;;22.10;81.30;;;;;;9179994;19;20465;-70
2023/08/19 03:27:49;;;;;;;20.63;13.75;;;22.10;81.20;;;;;;9179001;19;20019;-70
2023/08/19 03:30:59;;;;;;;21.25;13.63;;;22.10;81.30;;;;;;9182735;19;20026;-72
2023/08/19 03:34:05;;;;;;;19.77;13.27;;;22.10;81.40;;;;;;9180155;19;20018;-71
2023/08/19 03:37:12;;;;;;;21.20;13.15;;;22.10;81.40;;;;;;9179902;19;20026;-70
2023/08/19 03:40:18;;;;;;;21.20;12.88;;;22.00;81.30;;;;;;9180074;19;20039;-72
2023/08/19 03:43:25;;;;;;;18.80;12.80;;;22.00;81.40;;;;;;9174342;19;20027;-70
2023/08/19 03:46:33;;;;;;;21.13;13.75;;;22.00;81.40;;;;;;9181290;19;20018;-71
2023/08/19 03:49:41;;;;;;;19.85;12.90;;;22.00;81.50;;;;;;9176925;19;20388;-71
2023/08/19 03:52:47;;;;;;;20.77;13.45;;;22.00;81.40;;;;;;9181556;19;20604;-71
2023/08/19 03:55:54;;;;;;;21.23;12.35;;;22.00;81.50;;;;;;9180847;19;20014;-71
2023/08/19 03:59:00;;;;;;;18.60;12.70;;;22.00;81.50;;;;;;9179020;19;20022;-70
2023/08/19 04:02:10;;;;;;;16.40;12.27;;;22.00;81.50;;;;;;9179479;19;20046;-70
2023/08/19 04:05:16;;;;;;;16.45;11.27;;;22.00;81.60;;;;;;9180599;19;20097;-70
2023/08/19 04:08:23;;;;;;;23.23;12.05;;;22.00;81.60;;;;;;9179515;19;20019;-71
2023/08/19 04:11:28;;;;;;;21.05;12.27;;;22.00;81.60;;;;;;9178691;19;20010;-73
2023/08/19 04:14:36;;;;;;;19.30;12.52;;;22.00;81.60;;;;;;9179040;19;20024;-70
2023/08/19 04:17:44;;;;;;;18.45;12.23;;;21.90;81.60;;;;;;9178322;19;20035;-71
2023/08/19 04:20:51;;;;;;;23.77;12.70;;;21.90;81.70;;;;;;9177339;19;20017;-71
2023/08/19 04:23:57;;;;;;;19.83;12.20;;;21.90;81.70;;;;;;9174444;19;20118;-71
2023/08/19 04:27:05;;;;;;;22.75;13.00;;;21.90;81.70;;;;;;9178169;19;20023;-70
2023/08/19 04:30:11;;;;;;;22.00;13.05;;;21.90;81.70;;;;;;9179713;19;20109;-70
2023/08/19 04:33:22;;;;;;;18.73;12.18;;;21.90;81.70;;;;;;9178917;19;20025;-72
2023/08/19 04:36:27;;;;;;;20.70;12.50;;;21.90;81.80;;;;;;9176976;19;20025;-72
2023/08/19 04:39:41;;;;;;;18.83;11.65;;;21.90;82.40;;;;;;9177381;19;20025;-69
2023/08/19 04:42:53;;;;;;;23.00;11.77;;;21.90;81.90;;;;;;9171810;19;20018;-69
2023/08/19 04:46:02;;;;;;;18.90;12.48;;;21.90;81.80;;;;;;9177828;19;20372;-70
2023/08/19 04:49:11;;;;;;;21.95;12.05;;;21.90;81.80;;;;;;9175252;19;20090;-70
2023/08/19 04:52:18;;;;;;;20.48;11.80;;;21.90;82.00;;;;;;9176022;19;20600;-71
2023/08/19 04:55:24;;;;;;;15.95;11.10;;;21.90;81.90;;;;;;9178077;19;20368;-72
2023/08/19 04:58:32;;;;;;;19.92;11.43;;;21.90;82.00;;;;;;9176512;19;20480;-70
2023/08/19 05:01:38;;;;;;;18.55;10.50;;;21.90;82.00;;;;;;9178039;19;20073;-71
2023/08/19 05:04:48;;;;;;;17.55;11.13;;;21.90;82.00;;;;;;9175430;19;20015;-71
2023/08/19 05:07:53;;;;;;;21.20;11.35;;;21.90;82.10;;;;;;9175702;19;20014;-70
2023/08/19 05:11:01;;;;;;;18.70;10.90;;;21.90;82.00;;;;;;9166502;19;20499;-70
2023/08/19 05:14:07;;;;;;;16.35;10.25;;;21.90;82.00;;;;;;9166365;19;20472;-70
2023/08/19 05:17:14;;;;;;;19.63;10.20;;;21.90;82.10;;;;;;9166577;19;20522;-70
2023/08/19 05:20:22;;;;;;;19.05;9.15;;;22.00;82.20;;;;;;9162097;19;20018;-70
2023/08/19 05:23:30;;;;;;;13.88;9.32;;;22.00;82.30;;;;;;9170772;19;20030;-69
2023/08/19 05:26:36;;;;;;;20.35;10.00;;;22.00;82.20;;;;;;9175904;19;20034;-69
2023/08/19 05:29:44;;;;;;;14.05;9.43;;;22.00;82.20;;;;;;9175423;19;20022;-70
2023/08/19 05:32:51;;;;;;;18.05;10.07;;;22.10;82.30;;;;;;9175349;19;20017;-71
2023/08/19 05:36:01;;;;;;;14.48;8.90;;;22.10;82.30;;;;;;9176813;19;20767;-71
2023/08/19 05:39:07;;;;;;;12.32;8.70;;;22.10;82.30;;;;;;9172990;19;20093;-70
2023/08/19 05:42:15;;;;;;;16.27;9.40;;;22.20;82.30;;;;;;9171763;19;20040;-71
2023/08/19 05:45:20;;;;;;;12.23;8.98;;;22.20;82.20;;;;;;9174105;19;20018;-70
2023/08/19 05:48:28;;;;;;;15.90;9.02;;;22.20;82.20;;;;;;9174416;19;20487;-70
2023/08/19 05:51:36;;;;;;;11.80;7.63;;;22.20;82.20;;;;;;9175591;19;20074;-70
2023/08/19 05:54:43;;;;;;;19.50;9.57;;;22.20;82.30;;;;;;9173747;19;20018;-71
2023/08/19 05:57:49;;;;;;;15.23;7.97;;;22.20;82.30;;;;;;9175382;19;20021;-71
2023/08/19 06:01:00;;;;;;;13.55;8.27;;;22.30;82.30;;;;;;9175589;19;20022;-70
2023/08/19 06:04:08;;;;;;;12.80;7.45;;;22.30;82.30;;;;;;9174197;19;20041;-70
2023/08/19 06:07:25;;;;;;;12.05;7.78;;;22.30;82.30;;;;;;9173788;19;20014;-72
2023/08/19 06:10:31;;;;;;;15.88;7.97;;;22.30;82.30;;;;;;9174864;19;20391;-71
2023/08/19 06:13:39;;;;;;;15.25;8.55;;;22.40;82.30;;;;;;9175412;19;20023;-71
2023/08/19 06:16:44;;;;;;;15.07;8.35;;;22.40;82.40;;;;;;9171514;19;20015;-71
2023/08/19 06:19:52;;;;;;;10.80;8.00;;;22.40;82.30;;;;;;9173761;19;20081;-71
2023/08/19 06:23:00;;;;;;;11.95;8.07;;;22.50;82.40;;;;;;9173441;19;20871;-71
2023/08/19 06:26:07;;;;;;;10.50;7.90;;;22.50;82.50;;;;;;9173486;19;20030;-71
2023/08/19 06:29:12;;;;;;;16.83;8.40;;;22.60;82.40;;;;;;9175380;19;20029;-70
2023/08/19 06:32:21;;;;;;;14.27;7.97;;;22.60;82.40;;;;;;9174736;19;20026;-70
2023/08/19 06:35:28;;;;;;;10.05;6.75;;;22.60;83.10;;;;;;9173384;19;20014;-71
2023/08/19 06:38:42;;;;;;;11.73;7.70;;;22.70;82.40;;;;;;9174650;19;20022;-71
2023/08/19 06:41:53;;;;;;;15.43;8.10;;;22.80;82.50;;;;;;9169650;19;20119;-71
2023/08/19 06:45:02;;;;;;;10.23;7.53;;;22.80;82.40;;;;;;9172808;19;20788;-71
2023/08/19 06:48:10;;;;;;;13.02;6.38;;;22.90;82.40;;;;;;9172931;19;20038;-71
2023/08/19 06:51:18;;;;;;;12.20;7.15;;;23.00;82.40;;;;;;9182376;19;20021;-71
2023/08/19 06:54:27;;;;;;;12.15;7.05;;;23.00;82.30;;;;;;9183089;19;20022;-71
2023/08/19 06:57:39;;;;;;;10.93;5.85;;;23.10;82.20;;;;;;9181399;19;20018;-71
2023/08/19 07:00:46;;;;;;;14.55;6.63;;;23.10;82.20;;;;;;9182572;19;20010;-72
2023/08/19 07:03:54;;;;;;;14.15;5.80;;;23.20;82.10;;;;;;9179932;19;20014;-72
2023/08/19 07:07:03;;;;;;;10.95;6.70;;;23.30;82.10;;;;;;9181527;19;20025;-71
2023/08/19 07:10:15;;;;;;;11.35;5.93;;;23.30;82.00;;;;;;9182548;19;20015;-70
2023/08/19 07:13:21;;;;;;;12.20;5.60;;;23.40;82.00;;;;;;9177341;19;20018;-71
2023/08/19 07:16:29;;;;;;;10.57;6.10;;;23.40;81.90;;;;;;9164782;19;20014;-72
2023/08/19 07:19:41;;;;;;;9.70;5.55;;;23.50;81.80;;;;;;9167737;19;20026;-71
2023/08/19 07:22:51;;;;;;;13.98;5.60;;;23.50;81.70;;;;;;9165208;19;20011;-71
2023/08/19 07:26:00;;;;;;;15.90;5.75;;;23.60;81.70;;;;;;9162172;19;20014;-71
2023/08/19 07:29:09;;;;;;;13.30;6.50;;;23.60;81.60;;;;;;9167588;19;20401;-71
2023/08/19 07:32:16;;;;;;;12.43;6.05;;;23.70;81.60;;;;;;9164905;19;20687;-71
2023/08/19 07:35:23;;;;;;;10.70;6.25;;;23.70;81.60;;;;;;9165587;19;20019;-70
2023/08/19 07:38:28;;;;;;;12.95;6.95;;;23.80;81.60;;;;;;9172798;19;20022;-71
2023/08/19 07:41:39;;;;;;;14.65;7.32;;;23.80;81.40;;;;;;9177303;19;20745;-71
2023/08/19 07:44:44;;;;;;;11.00;7.43;;;23.90;81.40;;;;;;9177681;19;20359;-71
2023/08/19 07:47:52;;;;;;;15.93;7.53;;;23.90;81.30;;;;;;9177423;19;20010;-70
2023/08/19 07:50:57;;;;;;;13.35;7.20;;;24.00;81.30;;;;;;9179096;19;20055;-70
2023/08/19 07:54:04;;;;;;;13.27;7.53;;;24.00;81.10;;;;;;9177659;19;20014;-71
2023/08/19 07:57:12;;;;;;;12.57;6.85;;;24.00;81.10;;;;;;9179323;19;20011;-70
2023/08/19 08:00:21;;;;;;;11.80;6.20;;;24.10;81.20;;;;;;9176032;19;20085;-71
2023/08/19 08:03:27;;;;;;;9.68;5.85;;;24.10;81.10;;;;;;9177498;19;20482;-76
2023/08/19 08:06:35;;;;;;;10.93;6.15;;;24.20;81.10;;;;;;9176686;19;20487;-76
2023/08/19 08:09:41;;;;;;;16.27;5.80;;;24.20;81.00;;;;;;9172906;19;20014;-75
2023/08/19 08:12:51;;;;;;;7.60;4.90;;;24.20;81.00;;;;;;9176936;19;20002;-76
2023/08/19 08:15:58;;;;;;;12.35;5.00;;;24.30;81.10;;;;;;9175431;19;20014;-75
2023/08/19 08:19:17;;;;;;;10.23;5.43;;;24.40;81.00;;;;;;9176077;19;20369;-75
2023/08/19 08:22:23;;;;;;;11.02;5.35;;;24.50;81.00;;;;;;9178964;19;20486;-74
2023/08/19 08:25:33;;;;;;;10.38;4.53;;;24.60;81.00;;;;;;9174613;19;20029;-74
2023/08/19 08:28:50;;;;;;;8.48;5.05;;;24.60;80.80;;;;;;9177785;19;20018;-75
2023/08/19 08:32:00;;;;;;;9.55;4.75;;;24.70;80.70;;;;;;9178736;19;21215;-75
2023/08/19 08:35:08;;;;;;;8.85;4.60;;;24.80;80.70;;;;;;9175058;19;20023;-77
2023/08/19 08:38:18;;;;;;;6.63;4.40;;;24.90;80.60;;;;;;9176416;19;20439;-73
2023/08/19 08:41:29;;;;;;;10.23;4.93;;;25.00;80.50;;;;;;9174968;19;20014;-71
2023/08/19 08:44:44;;;;;;;9.70;4.97;;;25.10;80.40;;;;;;9178270;19;20029;-74
2023/08/19 08:47:54;;;;;;;11.70;4.93;;;25.20;80.30;;;;;;9178172;19;20017;-74
2023/08/19 08:51:03;;;;;;;8.70;4.13;;;25.30;80.20;;;;;;9180873;19;20010;-72
2023/08/19 08:54:09;;;;;;;10.38;4.32;;;25.40;80.20;;;;;;9181069;19;20010;-72
2023/08/19 08:57:16;;;;;;;7.93;4.50;;;25.40;79.90;;;;;;9180576;19;20495;-71
2023/08/19 09:00:24;;;;;;;10.43;3.97;;;25.60;80.00;;;;;;9180531;19;20024;-72
2023/08/19 09:03:35;;;;;;;8.57;4.13;;;25.60;79.70;;;;;;9179959;19;20082;-73
2023/08/19 09:06:42;;;;;;;11.15;4.03;;;25.70;79.60;;;;;;9176283;19;20081;-73
2023/08/19 09:09:51;;;;;;;6.45;3.83;;;25.80;79.60;;;;;;9180538;19;20030;-72
2023/08/19 09:13:00;;;;;;;7.13;3.72;;;25.90;79.40;;;;;;9176191;19;20025;-73
2023/08/19 09:16:11;;;;;;;9.90;4.05;;;26.00;79.30;;;;;;9177933;19;20014;-72
2023/08/19 09:19:17;;;;;;;8.40;4.05;;;26.10;79.40;;;;;;9179977;19;20073;-71
2023/08/19 09:22:26;;;;;;;18.98;3.88;;;26.20;79.30;;;;;;9177831;19;20022;-72
2023/08/19 09:25:32;;;;;;;11.82;3.53;;;26.30;79.10;;;;;;9177211;19;20018;-71
2023/08/19 09:28:40;;;;;;;6.25;3.45;;;26.40;78.90;;;;;;9180394;19;20015;-72
2023/08/19 09:31:54;;;;;;;10.73;3.85;;;26.50;78.80;;;;;;9177489;19;20484;-72
2023/08/19 09:35:06;;;;;;;8.50;3.22;;;26.60;78.60;;;;;;9177310;19;20023;-72
2023/08/19 09:38:21;;;;;;;7.20;3.53;;;26.70;78.30;;;;;;9177078;19;20705;-73
2023/08/19 09:41:30;;;;;;;8.48;3.50;;;26.80;78.10;;;;;;9173338;19;20029;-72
2023/08/19 09:44:35;;;;;;;8.57;3.75;;;26.90;78.10;;;;;;9176909;19;20092;-70
2023/08/19 09:47:51;;;;;;;8.25;4.45;;;27.00;77.90;;;;;;9178539;19;20022;-70
2023/08/19 09:50:57;;;;;;;14.02;3.90;;;27.10;77.50;;;;;;9179005;19;20556;-71
2023/08/19 09:54:11;;;;;;;5.85;3.58;;;27.20;77.60;;;;;;9176578;19;20010;-71
2023/08/19 09:57:17;;;;;;;7.82;3.55;;;27.40;77.40;;;;;;9176509;19;20070;-74
2023/08/19 10:00:25;;;;;;;10.07;4.43;;;27.50;77.20;;;;;;9176249;19;20014;-72
2023/08/19 10:03:33;;;;;;;6.90;3.78;;;27.70;77.10;;;;;;9178293;19;20014;-72
2023/08/19 10:06:46;;;;;;;12.18;4.57;;;27.90;76.90;;;;;;9174678;19;20014;-72
2023/08/19 10:09:53;;;;;;;12.00;4.15;;;28.10;76.70;;;;;;9177966;19;20349;-73
2023/08/19 10:13:03;;;;;;;8.13;4.57;;;28.20;76.40;;;;;;9176456;19;20025;-72
2023/08/19 10:16:09;;;;;;;16.48;4.45;;;28.40;76.20;;;;;;9177225;19;20043;-72
2023/08/19 10:19:23;;;;;;;9.13;4.35;;;28.60;76.00;;;;;;9176971;19;20044;-71
2023/08/19 10:22:30;;;;;;;10.15;5.20;;;28.70;75.40;;;;;;9175207;19;20022;-71
2023/08/19 10:25:39;;;;;;;11.25;4.63;;;28.80;75.30;;;;;;9174647;19;20010;-71
2023/08/19 10:28:44;;;;;;;11.43;4.28;;;28.90;75.10;;;;;;9175295;19;20011;-72
2023/08/19 10:31:52;;;;;;;9.10;4.57;;;29.00;74.90;;;;;;9175693;19;20026;-72
2023/08/19 10:35:08;;;;;;;14.75;4.57;;;29.00;74.70;;;;;;9175016;19;20093;-71
2023/08/19 10:38:18;;;;;;;12.73;4.57;;;29.10;74.50;;;;;;9174713;19;20010;-72
2023/08/19 10:41:27;;;;;;;11.55;5.07;;;29.00;74.50;;;;;;9169885;19;20074;-72
2023/08/19 10:44:37;;;;;;;9.45;4.30;;;29.00;74.50;;;;;;9174755;19;20591;-72
2023/08/19 10:47:43;;;;;;;11.65;5.15;;;29.00;74.50;;;;;;9174476;19;20014;-72
2023/08/19 10:50:58;;;;;;;13.18;5.47;;;29.00;74.60;;;;;;9174518;19;20014;-74
2023/08/19 10:54:09;;;;;;;12.10;5.30;;;28.90;74.40;;;;;;9174651;19;20013;-73
2023/08/19 10:57:17;;;;;;;8.32;5.13;;;28.90;74.60;;;;;;9173312;19;20015;-74
2023/08/19 11:00:33;;;;;;;16.98;6.55;;;28.80;74.60;;;;;;9175263;19;20014;-77
2023/08/19 11:03:43;;;;;;;10.40;6.07;;;28.70;74.50;;;;;;9170824;19;20010;-75
2023/08/19 11:06:57;;;;;;;10.95;6.18;;;28.70;74.70;;;;;;9170097;19;20106;-75
2023/08/19 11:10:10;;;;;;;12.77;6.25;;;28.60;74.80;;;;;;9171739;19;20010;-75
2023/08/19 11:13:25;;;;;;;11.75;5.80;;;28.50;74.80;;;;;;9172124;19;20018;-75
2023/08/19 11:16:33;;;;;;;17.80;6.80;;;28.40;75.00;;;;;;9173315;19;20127;-77
2023/08/19 11:19:40;;;;;;;12.98;6.25;;;28.40;75.20;;;;;;9173562;19;20017;-75
2023/08/19 11:22:54;;;;;;;10.07;6.85;;;28.30;75.30;;;;;;9174033;19;20034;-75
2023/08/19 11:26:01;;;;;;;9.23;6.43;;;28.20;75.50;;;;;;9174608;19;20042;-77
2023/08/19 11:29:11;;;;;;;18.00;7.05;;;28.10;75.60;;;;;;9173844;19;20086;-78
2023/08/19 11:32:25;;;;;;;10.65;6.90;;;28.10;75.80;;;;;;9170655;19;20014;-76
2023/08/19 11:35:45;;;;;;;11.20;7.28;;;28.10;76.00;;;;;;9172766;19;20019;-77
2023/08/19 11:38:57;;;;;;;12.70;7.55;;;28.10;76.20;;;;;;9183302;19;20016;-77
2023/08/19 11:42:10;;;;;;;14.25;7.30;;;28.10;76.20;;;;;;9178580;19;20356;-78
2023/08/19 11:45:17;;;;;;;17.85;7.85;;;28.00;76.90;;;;;;9181119;19;20019;-76
2023/08/19 11:48:26;;;;;;;12.73;7.50;;;28.00;76.40;;;;;;9170244;19;20021;-77
2023/08/19 11:51:35;;;;;;;19.20;8.25;;;28.00;76.50;;;;;;9177449;19;20110;-78
2023/08/19 11:54:59;;;;;;;17.23;8.30;;;28.10;76.70;;;;;;9174421;19;20025;-77
2023/08/19 11:58:06;;;;;;;15.00;8.25;;;28.20;76.80;;;;;;9178414;19;20015;-78
2023/08/19 12:01:19;;;;;;;14.32;8.43;;;28.20;76.50;;;;;;9177528;19;20021;-77
2023/08/19 12:04:25;;;;;;;13.57;8.07;;;28.30;76.50;;;;;;9177223;19;20099;-77
2023/08/19 12:07:36;;;;;;;17.52;8.00;;;28.40;76.30;;;;;;9177735;19;20058;-77
2023/08/19 12:10:44;;;;;;;17.92;8.38;;;28.50;76.10;;;;;;9175033;19;20047;-76
2023/08/19 12:13:53;;;;;;;14.90;8.80;;;28.60;76.10;;;;;;9174849;19;20010;-75
2023/08/19 12:16:59;;;;;;;18.77;8.10;;;28.60;76.10;;;;;;9174102;19;20020;-76
2023/08/19 12:20:08;;;;;;;19.23;9.80;;;28.70;76.10;;;;;;9172521;19;20648;-76
2023/08/19 12:23:13;;;;;;;18.02;9.82;;;28.80;75.90;;;;;;9176376;19;20110;-75
2023/08/19 12:26:23;;;;;;;14.90;9.50;;;28.80;75.60;;;;;;9177815;19;20020;-75
2023/08/19 12:29:29;;;;;;;17.45;10.32;;;28.80;75.50;;;;;;9178562;19;20010;-75
2023/08/19 12:32:36;;;;;;;15.52;9.30;;;28.80;75.50;;;;;;9179110;19;20027;-75
2023/08/19 12:35:46;;;;;;;17.65;9.52;;;28.80;75.50;;;;;;9178458;19;20052;-75
2023/08/19 12:38:53;;;;;;;19.50;9.70;;;28.80;75.50;;;;;;9178465;19;20018;-75
2023/08/19 12:42:01;;;;;;;13.45;8.60;;;28.70;75.50;;;;;;9172545;19;20021;-75
2023/08/19 12:45:09;;;;;;;15.27;9.73;;;28.80;75.50;;;;;;9175750;19;20017;-75
2023/08/19 12:48:15;;;;;;;16.90;9.55;;;28.80;75.60;;;;;;9172201;19;20015;-75
2023/08/19 12:51:23;;;;;;;15.20;9.18;;;28.70;75.60;;;;;;9173593;19;20042;-75
2023/08/19 12:54:35;;;;;;;14.75;8.63;;;28.70;75.60;;;;;;9175541;19;20018;-76
2023/08/19 12:57:46;;;;;;;20.65;9.50;;;28.70;75.80;;;;;;9175543;19;20038;-75
2023/08/19 13:00:52;;;;;;;13.23;8.77;;;28.60;75.70;;;;;;9174895;19;20018;-76
2023/08/19 13:04:03;;;;;;;17.80;8.80;;;28.60;75.70;;;;;;9176567;19;20018;-74
2023/08/19 13:07:28;;;;;;;14.98;10.93;;;28.70;75.90;;;;;;9166574;19;20016;-76
2023/08/19 13:10:38;;;;;;;28.65;9.88;;;28.60;75.80;;;;;;9170846;19;20038;-75
2023/08/19 13:13:48;;;;;;;21.88;9.52;;;28.60;75.90;;;;;;9172488;19;20018;-76
2023/08/19 13:16:55;;;;;;;20.48;10.95;;;28.50;75.90;;;;;;9173621;19;20063;-75
2023/08/19 13:20:01;;;;;;;28.00;12.30;;;28.60;76.00;;;;;;9172904;19;20143;-75
2023/08/19 13:23:11;;;;;;;24.05;15.00;;;28.50;76.10;;;;;;9171943;19;20017;-75
2023/08/19 13:26:17;;;;;;;35.60;21.42;;;28.50;76.30;;;;;;9171646;19;20523;-75
2023/08/19 13:29:30;;;;;;;33.53;22.00;;;28.50;76.40;;;;;;9169333;19;20015;-76
2023/08/19 13:32:45;;;;;;;38.63;21.63;;;28.40;76.40;;;;;;9171621;19;20025;-78
2023/08/19 13:35:55;;;;;;;45.22;24.52;;;28.30;76.50;;;;;;9171917;19;20006;-73
2023/08/19 13:39:00;;;;;;;34.55;23.85;;;28.20;76.60;;;;;;9170892;19;20490;-74
2023/08/19 13:42:08;;;;;;;35.28;23.27;;;28.10;76.70;;;;;;9168514;19;20018;-76
2023/08/19 13:45:16;;;;;;;35.63;24.30;;;28.00;76.90;;;;;;9169978;19;20046;-76
2023/08/19 13:48:25;;;;;;;38.85;23.30;;;28.00;77.10;;;;;;9171445;19;20022;-76
2023/08/19 13:51:31;;;;;;;37.25;23.80;;;27.90;77.10;;;;;;9171841;19;20439;-76
2023/08/19 13:54:41;;;;;;;33.17;22.90;;;27.80;77.30;;;;;;9172765;19;20018;-77
2023/08/19 13:57:47;;;;;;;38.15;23.20;;;27.80;77.40;;;;;;9173558;19;20022;-76
2023/08/19 14:00:59;;;;;;;33.55;22.17;;;27.70;78.10;;;;;;9170313;19;20070;-76
2023/08/19 14:04:05;;;;;;;29.35;19.67;;;27.60;77.60;;;;;;9170765;19;20479;-74
2023/08/19 14:07:16;;;;;;;27.60;18.10;;;27.50;77.70;;;;;;9170430;19;20500;-76
2023/08/19 14:10:22;;;;;;;28.70;17.48;;;27.50;77.80;;;;;;9171827;19;20048;-76
2023/08/19 14:13:30;;;;;;;29.45;17.67;;;27.40;77.70;;;;;;9169785;19;20381;-75
2023/08/19 14:16:38;;;;;;;24.85;16.20;;;27.40;77.80;;;;;;9172020;19;20024;-75
2023/08/19 14:19:46;;;;;;;25.15;14.40;;;27.30;77.80;;;;;;9173084;19;20025;-75
2023/08/19 14:22:51;;;;;;;27.83;14.80;;;27.30;77.80;;;;;;9173467;19;20078;-74
2023/08/19 14:25:59;;;;;;;20.73;12.82;;;27.20;77.80;;;;;;9172071;19;20029;-75
2023/08/19 14:29:04;;;;;;;25.65;15.55;;;27.20;77.90;;;;;;9173038;19;20014;-75
2023/08/19 14:32:15;;;;;;;25.33;14.00;;;27.10;77.90;;;;;;9174138;19;20049;-75
2023/08/19 14:35:22;;;;;;;22.90;13.35;;;27.10;78.00;;;;;;9172124;19;20034;-75
2023/08/19 14:38:30;;;;;;;22.92;12.13;;;27.00;78.00;;;;;;9173468;19;20395;-77
2023/08/19 14:41:42;;;;;;;20.48;11.95;;;26.90;77.90;;;;;;9166548;19;20334;-75
2023/08/19 14:44:52;;;;;;;20.70;11.75;;;26.90;77.90;;;;;;9171125;19;20023;-75
2023/08/19 14:48:01;;;;;;;20.95;12.30;;;26.90;78.00;;;;;;9172305;19;20019;-77
2023/08/19 14:51:11;;;;;;;20.90;11.63;;;26.80;77.90;;;;;;9162756;19;20009;-75
2023/08/19 14:54:17;;;;;;;20.15;10.73;;;26.80;78.00;;;;;;9161135;19;20015;-76
2023/08/19 14:57:29;;;;;;;17.98;10.45;;;26.70;78.00;;;;;;9167687;19;20026;-74
2023/08/19 15:00:34;;;;;;;21.35;10.30;;;26.70;78.00;;;;;;9166078;19;20040;-74
2023/08/19 15:03:44;;;;;;;20.63;10.05;;;26.70;78.00;;;;;;9161439;19;20026;-75
2023/08/19 15:06:50;;;;;;;16.38;9.30;;;26.60;78.00;;;;;;9167525;19;20025;-76
2023/08/19 15:10:08;;;;;;;21.05;10.85;;;26.60;78.00;;;;;;9166419;19;20010;-75
2023/08/19 15:13:14;;;;;;;21.38;11.70;;;26.60;78.10;;;;;;9172998;19;20023;-75
2023/08/19 15:16:23;;;;;;;19.27;11.45;;;26.50;78.10;;;;;;9178203;19;20018;-76
2023/08/19 15:19:32;;;;;;;17.60;10.52;;;26.50;78.20;;;;;;9177528;19;20019;-76
2023/08/19 15:22:42;;;;;;;17.60;10.95;;;26.50;78.20;;;;;;9177287;19;20014;-76
2023/08/19 15:25:52;;;;;;;21.48;11.07;;;26.40;78.20;;;;;;9172175;19;20024;-76
2023/08/19 15:29:00;;;;;;;19.00;10.98;;;26.40;78.40;;;;;;9170466;19;20111;-76
2023/08/19 15:32:10;;;;;;;24.05;11.88;;;26.40;78.40;;;;;;9164110;19;20411;-74
2023/08/19 15:35:24;;;;;;;16.83;9.77;;;26.30;78.50;;;;;;9154123;19;20422;-74
2023/08/19 15:38:42;;;;;;;20.13;11.27;;;26.30;78.60;;;;;;9154150;19;20126;-75
2023/08/19 15:41:54;;;;;;;20.17;11.63;;;26.30;78.70;;;;;;9152304;19;20021;-77
2023/08/19 15:45:02;;;;;;;24.23;11.38;;;26.20;78.70;;;;;;9157777;19;20039;-78
2023/08/19 15:48:13;;;;;;;18.27;10.80;;;26.20;78.80;;;;;;9154859;19;20031;-77
2023/08/19 15:51:24;;;;;;;21.02;10.82;;;26.20;78.90;;;;;;9153977;19;20019;-77
2023/08/19 15:54:31;;;;;;;29.40;13.50;;;26.20;79.00;;;;;;9156443;19;20368;-78
2023/08/19 15:57:42;;;;;;;26.00;15.23;;;26.20;79.00;;;;;;9159084;19;20826;-78
2023/08/19 16:00:50;;;;;;;23.23;12.75;;;26.20;79.10;;;;;;9175642;19;20010;-76
2023/08/19 16:03:57;;;;;;;20.85;12.30;;;26.20;79.20;;;;;;9168673;19;20018;-79